Time;durP1;ratioP1;P1;durP2;ratioP2;P2;SDS_P1;SDS_P2;PMS_P1;PMS_P2;Temp;Humidity;BMP_temperature;BMP_pressure;BME280_temperature;BME280_humidity;BME280_pressure;Samples;Min_cycle;Max_cycle;Signal;HPM_P1;HPM_P2
2023/05/23 00:00:57;;;;;;;3.67;3.22;;;;;;;;;;5033028;28;20025;-63
2023/05/23 00:03:23;;;;;;;5.13;3.42;;;;;;;;;;5032923;28;20032;-63
2023/05/23 00:05:50;;;;;;;4.55;3.30;;;;;;;;;;5032894;28;20112;-63
2023/05/23 00:08:16;;;;;;;5.55;3.60;;;;;;;;;;5032198;28;20037;-63
2023/05/23 00:10:42;;;;;;;4.82;3.08;;;;;;;;;;5032988;28;20164;-65
2023/05/23 00:13:08;;;;;;;4.68;3.55;;;;;;;;;;5032879;28;20025;-64
2023/05/23 00:15:36;;;;;;;7.97;3.35;;;;;;;;;;5032588;28;20108;-63
2023/05/23 00:18:02;;;;;;;3.53;3.22;;;;;;;;;;5031657;28;20101;-64
2023/05/23 00:20:29;;;;;;;3.55;3.20;;;;;;;;;;5032763;28;20112;-65
2023/05/23 00:22:57;;;;;;;4.55;3.30;;;;;;;;;;5031471;28;20029;-64
2023/05/23 00:25:32;;;;;;;4.55;3.40;;;;;;;;;;5032695;28;20464;-65
2023/05/23 00:27:59;;;;;;;5.28;3.55;;;;;;;;;;5032533;28;20057;-65
2023/05/23 00:30:26;;;;;;;3.67;3.30;;;;;;;;;;5032577;28;20029;-62
2023/05/23 00:32:53;;;;;;;4.50;3.40;;;;;;;;;;5032648;28;20029;-63
2023/05/23 00:35:22;;;;;;;4.00;3.05;;;;;;;;;;5032479;28;20022;-63
2023/05/23 00:37:50;;;;;;;3.67;3.40;;;;;;;;;;5032886;28;20037;-63
2023/05/23 00:40:20;;;;;;;3.92;3.42;;;;;;;;;;5032717;28;20029;-63
2023/05/23 00:42:46;;;;;;;6.68;3.80;;;;;;;;;;5032759;28;20025;-64
2023/05/23 00:45:12;;;;;;;4.07;3.72;;;;;;;;;;5032364;28;20037;-64
2023/05/23 00:47:42;;;;;;;3.50;3.20;;;;;;;;;;5032651;28;20025;-64
2023/05/23 00:50:10;;;;;;;3.65;3.30;;;;;;;;;;5032380;28;20072;-64
2023/05/23 00:52:37;;;;;;;4.95;3.20;;;;;;;;;;5032330;28;20083;-62
2023/05/23 00:55:04;;;;;;;4.13;3.08;;;;;;;;;;5032180;28;20048;-62
2023/05/23 00:57:29;;;;;;;4.05;3.45;;;;;;;;;;5032332;28;20025;-62
2023/05/23 00:59:55;;;;;;;4.43;3.25;;;;;;;;;;5032599;28;20488;-65
2023/05/23 01:02:21;;;;;;;3.47;3.15;;;;;;;;;;5032577;28;20380;-63
2023/05/23 01:04:53;;;;;;;4.07;3.40;;;;;;;;;;5030906;28;20030;-64
2023/05/23 01:07:19;;;;;;;3.83;3.50;;;;;;;;;;5032366;28;20025;-63
2023/05/23 01:09:45;;;;;;;3.83;3.20;;;;;;;;;;5032447;28;20026;-63
2023/05/23 01:12:45;;;;;;;4.32;3.20;;;;;;;;;;5032149;28;20487;-64
2023/05/23 01:15:14;;;;;;;4.05;3.20;;;;;;;;;;5031982;28;20021;-63
2023/05/23 01:17:51;;;;;;;3.65;3.35;;;;;;;;;;5032005;28;20053;-63
2023/05/23 01:20:29;;;;;;;3.42;3.13;;;;;;;;;;5034113;28;20037;-63
2023/05/23 01:23:00;;;;;;;3.78;3.17;;;;;;;;;;5036039;28;20091;-64
2023/05/23 01:25:58;;;;;;;3.50;3.20;;;;;;;;;;5035847;28;20033;-63
2023/05/23 01:28:30;;;;;;;3.50;3.20;;;;;;;;;;5035786;28;20485;-64
2023/05/23 01:30:57;;;;;;;3.40;3.10;;;;;;;;;;5036125;28;20412;-64
2023/05/23 01:33:24;;;;;;;3.47;3.17;;;;;;;;;;5034568;28;20032;-64
2023/05/23 01:35:50;;;;;;;3.72;3.42;;;;;;;;;;5035725;28;20106;-63
2023/05/23 01:38:16;;;;;;;3.63;3.33;;;;;;;;;;5034413;28;20029;-63
2023/05/23 01:40:42;;;;;;;3.78;3.28;;;;;;;;;;5035694;28;20021;-62
2023/05/23 01:43:08;;;;;;;3.85;3.10;;;;;;;;;;5035826;28;20026;-62
2023/05/23 01:45:34;;;;;;;3.92;3.25;;;;;;;;;;5035713;28;20021;-63
2023/05/23 01:48:01;;;;;;;3.78;2.97;;;;;;;;;;5035386;28;20465;-63
2023/05/23 01:50:27;;;;;;;4.75;3.38;;;;;;;;;;5035403;28;20481;-63
2023/05/23 01:52:54;;;;;;;3.70;3.30;;;;;;;;;;5035435;28;20079;-63
2023/05/23 01:55:23;;;;;;;3.28;2.97;;;;;;;;;;5035478;28;20524;-63
2023/05/23 01:57:54;;;;;;;4.72;3.20;;;;;;;;;;5035383;28;20026;-63
2023/05/23 02:00:20;;;;;;;3.50;3.20;;;;;;;;;;5035392;28;20057;-64
2023/05/23 02:02:46;;;;;;;4.28;3.47;;;;;;;;;;5036293;28;20049;-63
2023/05/23 02:05:11;;;;;;;3.90;3.55;;;;;;;;;;5035271;28;20460;-65
2023/05/23 02:07:37;;;;;;;3.53;3.17;;;;;;;;;;5035198;28;20028;-64
2023/05/23 02:10:03;;;;;;;4.50;3.15;;;;;;;;;;5035183;28;20022;-63
2023/05/23 02:12:32;;;;;;;5.05;3.05;;;;;;;;;;5034953;28;20021;-63
2023/05/23 02:14:59;;;;;;;4.60;3.35;;;;;;;;;;5035054;28;20025;-63
2023/05/23 02:17:25;;;;;;;5.03;3.42;;;;;;;;;;5034787;28;20057;-64
2023/05/23 02:19:50;;;;;;;4.40;3.40;;;;;;;;;;5034888;28;20043;-63
2023/05/23 02:22:16;;;;;;;4.45;2.97;;;;;;;;;;5034843;28;20061;-62
2023/05/23 02:24:41;;;;;;;3.55;3.25;;;;;;;;;;5034889;28;20026;-63
2023/05/23 02:27:07;;;;;;;3.50;3.20;;;;;;;;;;5035084;28;20029;-63
2023/05/23 02:29:33;;;;;;;3.50;3.20;;;;;;;;;;5034740;28;20393;-63
2023/05/23 02:31:58;;;;;;;3.50;3.20;;;;;;;;;;5033968;28;20029;-63
2023/05/23 02:34:25;;;;;;;5.00;3.20;;;;;;;;;;5034754;28;20041;-63
2023/05/23 02:36:50;;;;;;;3.40;3.10;;;;;;;;;;5033274;28;20469;-63
2023/05/23 02:39:16;;;;;;;3.25;3.05;;;;;;;;;;5034605;28;20018;-63
2023/05/23 02:41:42;;;;;;;3.53;3.22;;;;;;;;;;5034767;28;20417;-64
2023/05/23 02:44:08;;;;;;;4.45;3.47;;;;;;;;;;5034848;28;20029;-64
2023/05/23 02:46:33;;;;;;;3.33;3.00;;;;;;;;;;5034447;28;20096;-63
2023/05/23 02:48:59;;;;;;;3.50;3.17;;;;;;;;;;5034407;28;20564;-64
2023/05/23 02:51:25;;;;;;;3.05;2.85;;;;;;;;;;5034301;28;20037;-63
2023/05/23 02:53:51;;;;;;;3.60;3.30;;;;;;;;;;5034763;28;20518;-62
2023/05/23 02:56:17;;;;;;;3.53;3.22;;;;;;;;;;5034223;28;20029;-62
2023/05/23 02:58:43;;;;;;;3.63;3.30;;;;;;;;;;5034597;28;20100;-63
2023/05/23 03:01:09;;;;;;;3.65;3.35;;;;;;;;;;5034280;28;20033;-63
2023/05/23 03:03:34;;;;;;;3.42;3.13;;;;;;;;;;5034224;28;20112;-63
2023/05/23 03:06:02;;;;;;;3.30;3.00;;;;;;;;;;5034358;28;20022;-63
2023/05/23 03:08:30;;;;;;;3.25;2.95;;;;;;;;;;5034014;28;20052;-63
2023/05/23 03:10:56;;;;;;;3.80;3.40;;;;;;;;;;5034237;28;20385;-63
2023/05/23 03:13:21;;;;;;;4.15;3.33;;;;;;;;;;5033949;28;20029;-63
2023/05/23 03:15:47;;;;;;;5.93;3.22;;;;;;;;;;5033672;28;20072;-64
2023/05/23 03:18:13;;;;;;;4.03;3.20;;;;;;;;;;5033903;28;20021;-63
2023/05/23 03:20:38;;;;;;;2.97;2.78;;;;;;;;;;5034103;28;20033;-63
2023/05/23 03:23:04;;;;;;;3.60;3.03;;;;;;;;;;5033738;28;20021;-64
2023/05/23 03:25:29;;;;;;;3.25;2.90;;;;;;;;;;5033930;28;20029;-63
2023/05/23 03:27:55;;;;;;;3.65;3.03;;;;;;;;;;5033596;28;20025;-63
2023/05/23 03:30:21;;;;;;;3.47;3.17;;;;;;;;;;5033873;28;20029;-63
2023/05/23 03:32:46;;;;;;;3.72;3.10;;;;;;;;;;5033653;28;20526;-63
2023/05/23 03:35:12;;;;;;;3.30;3.00;;;;;;;;;;5033561;28;20504;-63
2023/05/23 03:37:38;;;;;;;3.53;3.10;;;;;;;;;;5033498;28;20104;-62
2023/05/23 03:40:04;;;;;;;3.65;3.25;;;;;;;;;;5033372;28;20025;-63
2023/05/23 03:42:30;;;;;;;3.22;2.92;;;;;;;;;;5033018;28;20033;-62
2023/05/23 03:44:55;;;;;;;3.40;3.10;;;;;;;;;;5033027;28;20026;-61
2023/05/23 03:47:22;;;;;;;3.63;3.03;;;;;;;;;;5033420;28;20025;-62
2023/05/23 03:49:48;;;;;;;3.47;3.13;;;;;;;;;;5033144;28;20025;-62
2023/05/23 03:52:14;;;;;;;3.38;3.08;;;;;;;;;;5033228;28;20033;-62
2023/05/23 03:54:40;;;;;;;3.97;3.20;;;;;;;;;;5033238;28;20109;-62
2023/05/23 03:57:06;;;;;;;5.00;2.95;;;;;;;;;;5033265;28;20104;-62
2023/05/23 03:59:32;;;;;;;4.78;3.05;;;;;;;;;;5031992;28;20032;-64
2023/05/23 04:01:59;;;;;;;3.40;3.10;;;;;;;;;;5033039;28;20037;-64
2023/05/23 04:04:28;;;;;;;3.33;3.03;;;;;;;;;;5032985;28;20029;-61
2023/05/23 04:06:54;;;;;;;3.30;3.00;;;;;;;;;;5032145;28;20029;-62
2023/05/23 04:09:20;;;;;;;3.28;2.97;;;;;;;;;;5032892;28;20040;-61
2023/05/23 04:11:47;;;;;;;3.75;3.13;;;;;;;;;;5032897;28;20100;-62
2023/05/23 04:14:12;;;;;;;3.90;3.25;;;;;;;;;;5032889;28;20033;-61
2023/05/23 04:16:40;;;;;;;3.25;2.95;;;;;;;;;;5032601;28;20046;-62
2023/05/23 04:19:08;;;;;;;4.25;3.10;;;;;;;;;;5032827;28;20083;-62
2023/05/23 04:21:34;;;;;;;3.40;3.10;;;;;;;;;;5032812;28;20021;-62
2023/05/23 04:24:01;;;;;;;3.78;3.25;;;;;;;;;;5032694;28;20029;-61
2023/05/23 04:26:27;;;;;;;4.25;3.30;;;;;;;;;;5032716;28;20026;-62
2023/05/23 04:28:53;;;;;;;4.57;2.95;;;;;;;;;;5032489;28;20116;-61
2023/05/23 04:31:23;;;;;;;4.57;2.90;;;;;;;;;;5032604;28;20032;-61
2023/05/23 04:33:48;;;;;;;5.22;3.42;;;;;;;;;;5032595;28;20026;-61
2023/05/23 04:36:15;;;;;;;3.67;3.10;;;;;;;;;;5032586;28;20076;-62
2023/05/23 04:38:41;;;;;;;2.90;2.70;;;;;;;;;;5032745;28;20017;-63
2023/05/23 04:41:12;;;;;;;3.40;3.10;;;;;;;;;;5032533;28;20162;-62
2023/05/23 04:43:41;;;;;;;3.65;3.10;;;;;;;;;;5032421;28;20133;-63
2023/05/23 04:46:08;;;;;;;3.00;2.80;;;;;;;;;;5032418;28;20116;-62
2023/05/23 04:48:35;;;;;;;3.05;2.70;;;;;;;;;;5032202;28;20037;-61
2023/05/23 04:51:06;;;;;;;3.33;3.03;;;;;;;;;;5032359;28;20025;-62
2023/05/23 04:53:32;;;;;;;4.28;3.00;;;;;;;;;;5032394;28;20032;-62
2023/05/23 04:55:58;;;;;;;3.15;2.78;;;;;;;;;;5035658;28;20029;-61
2023/05/23 04:58:24;;;;;;;3.58;2.88;;;;;;;;;;5036679;28;20036;-62
2023/05/23 05:00:50;;;;;;;3.17;2.90;;;;;;;;;;5036508;28;20461;-62
2023/05/23 05:03:16;;;;;;;2.97;2.78;;;;;;;;;;5036413;28;20488;-62
2023/05/23 05:05:42;;;;;;;3.05;2.85;;;;;;;;;;5036567;28;20033;-61
2023/05/23 05:08:07;;;;;;;3.22;2.92;;;;;;;;;;5036477;28;20028;-61
2023/05/23 05:10:33;;;;;;;3.33;3.03;;;;;;;;;;5036321;28;20473;-64
2023/05/23 05:12:58;;;;;;;3.25;2.95;;;;;;;;;;5036203;28;20018;-62
2023/05/23 05:15:24;;;;;;;3.83;3.20;;;;;;;;;;5036229;28;20033;-62
2023/05/23 05:17:50;;;;;;;3.25;2.88;;;;;;;;;;5036094;28;20460;-61
2023/05/23 05:20:16;;;;;;;3.38;3.08;;;;;;;;;;5036067;28;20032;-62
2023/05/23 05:22:42;;;;;;;3.15;2.85;;;;;;;;;;5036050;28;20041;-62
2023/05/23 05:25:09;;;;;;;3.30;3.00;;;;;;;;;;5047991;28;20024;-62
2023/05/23 05:27:38;;;;;;;3.30;3.00;;;;;;;;;;5044994;28;20103;-62
2023/05/23 05:30:08;;;;;;;3.40;3.10;;;;;;;;;;5035912;28;20422;-61
2023/05/23 05:32:33;;;;;;;3.37;3.07;;;;;;;;;;5035885;28;20116;-61
2023/05/23 05:34:59;;;;;;;3.33;3.03;;;;;;;;;;5035706;28;20061;-60
2023/05/23 05:37:25;;;;;;;3.35;3.05;;;;;;;;;;5048577;28;20021;-61
2023/05/23 05:39:53;;;;;;;3.40;3.10;;;;;;;;;;5051023;28;20021;-61
2023/05/23 05:42:19;;;;;;;4.45;3.15;;;;;;;;;;5044807;28;20021;-61
2023/05/23 05:44:49;;;;;;;3.38;3.08;;;;;;;;;;5047804;28;20029;-61
2023/05/23 05:47:15;;;;;;;3.63;2.80;;;;;;;;;;5055655;28;20029;-61
2023/05/23 05:49:40;;;;;;;3.05;2.80;;;;;;;;;;5054915;28;20037;-62
2023/05/23 05:52:07;;;;;;;5.95;3.30;;;;;;;;;;5054772;28;20053;-61
2023/05/23 05:54:33;;;;;;;3.38;3.05;;;;;;;;;;5054041;28;20032;-64
2023/05/23 05:56:58;;;;;;;4.28;2.97;;;;;;;;;;5055411;28;20388;-62
2023/05/23 05:59:24;;;;;;;3.05;2.75;;;;;;;;;;5055257;28;20025;-64
2023/05/23 06:01:51;;;;;;;2.90;2.60;;;;;;;;;;5055293;28;20033;-62
2023/05/23 06:04:17;;;;;;;2.63;2.42;;;;;;;;;;5055099;28;20119;-61
2023/05/23 06:06:42;;;;;;;3.30;3.00;;;;;;;;;;5053950;28;20112;-61
2023/05/23 06:09:08;;;;;;;2.88;2.67;;;;;;;;;;5054984;28;20029;-60
2023/05/23 06:11:33;;;;;;;3.08;2.78;;;;;;;;;;5055339;28;20033;-61
2023/05/23 06:13:59;;;;;;;3.28;2.90;;;;;;;;;;5054991;28;20492;-61
2023/05/23 06:16:25;;;;;;;4.15;3.10;;;;;;;;;;5054824;28;20076;-61
2023/05/23 06:18:50;;;;;;;2.85;2.65;;;;;;;;;;5055077;28;20036;-63
2023/05/23 06:21:16;;;;;;;3.63;3.05;;;;;;;;;;5054893;28;20439;-61
2023/05/23 06:23:41;;;;;;;3.88;3.00;;;;;;;;;;5054813;28;20033;-62
2023/05/23 06:26:09;;;;;;;3.03;2.72;;;;;;;;;;5053582;28;20479;-62
2023/05/23 06:28:38;;;;;;;3.72;2.80;;;;;;;;;;5054637;28;20032;-64
2023/05/23 06:31:04;;;;;;;3.40;3.10;;;;;;;;;;5054966;28;20033;-62
2023/05/23 06:33:30;;;;;;;3.08;2.80;;;;;;;;;;5054495;28;20098;-63
2023/05/23 06:35:56;;;;;;;3.10;2.80;;;;;;;;;;5054671;28;20025;-62
2023/05/23 06:38:21;;;;;;;3.20;2.90;;;;;;;;;;5054793;28;20025;-64
2023/05/23 06:40:47;;;;;;;4.00;2.85;;;;;;;;;;5054543;28;20043;-63
2023/05/23 06:43:13;;;;;;;3.33;3.03;;;;;;;;;;5054464;28;20031;-62
2023/05/23 06:45:38;;;;;;;3.53;3.22;;;;;;;;;;5054364;28;20025;-65
2023/05/23 06:48:04;;;;;;;3.35;3.05;;;;;;;;;;5054293;28;20041;-63
2023/05/23 06:50:30;;;;;;;2.90;2.67;;;;;;;;;;5054328;28;20017;-64
2023/05/23 06:52:55;;;;;;;3.08;2.78;;;;;;;;;;5054180;28;20079;-65
2023/05/23 06:55:22;;;;;;;3.17;2.90;;;;;;;;;;5054498;28;20028;-62
2023/05/23 06:57:50;;;;;;;2.90;2.70;;;;;;;;;;5054381;28;20025;-61
2023/05/23 07:00:17;;;;;;;4.70;2.90;;;;;;;;;;5054163;28;20031;-63
2023/05/23 07:02:44;;;;;;;3.55;2.70;;;;;;;;;;5054092;28;20025;-62
2023/05/23 07:05:10;;;;;;;2.78;2.58;;;;;;;;;;5054019;28;20079;-63
2023/05/23 07:07:35;;;;;;;3.28;2.80;;;;;;;;;;5053863;28;20025;-63
2023/05/23 07:10:01;;;;;;;5.07;2.97;;;;;;;;;;5054031;28;20032;-63
2023/05/23 07:12:26;;;;;;;2.67;2.47;;;;;;;;;;5047040;28;20056;-63
2023/05/23 07:14:53;;;;;;;3.10;2.80;;;;;;;;;;5053066;28;20064;-64
2023/05/23 07:17:18;;;;;;;3.28;2.95;;;;;;;;;;5051816;28;20136;-65
2023/05/23 07:19:45;;;;;;;2.67;2.42;;;;;;;;;;5052237;28;20107;-65
2023/05/23 07:22:10;;;;;;;3.72;2.80;;;;;;;;;;5052353;28;20033;-65
2023/05/23 07:24:36;;;;;;;3.15;2.85;;;;;;;;;;5050789;28;20716;-63
2023/05/23 07:27:02;;;;;;;3.30;2.92;;;;;;;;;;5051888;28;20025;-63
2023/05/23 07:29:28;;;;;;;2.92;2.72;;;;;;;;;;5052214;28;20036;-62
2023/05/23 07:31:53;;;;;;;4.15;2.88;;;;;;;;;;5051923;28;20032;-64
2023/05/23 07:34:19;;;;;;;5.00;2.90;;;;;;;;;;5050583;28;20040;-63
2023/05/23 07:36:46;;;;;;;3.33;2.63;;;;;;;;;;5052188;28;20494;-63
2023/05/23 07:39:13;;;;;;;3.53;2.70;;;;;;;;;;5051923;28;20100;-64
2023/05/23 07:41:39;;;;;;;2.95;2.75;;;;;;;;;;5050354;28;20033;-63
2023/05/23 07:44:05;;;;;;;3.30;3.00;;;;;;;;;;5051774;28;20037;-64
2023/05/23 07:46:31;;;;;;;2.97;2.67;;;;;;;;;;5051757;28;20062;-63
2023/05/23 07:48:57;;;;;;;3.50;2.70;;;;;;;;;;5051419;28;20033;-63
2023/05/23 07:51:22;;;;;;;2.65;2.45;;;;;;;;;;5051579;28;20033;-63
2023/05/23 07:53:48;;;;;;;2.63;2.42;;;;;;;;;;5051558;28;20036;-64
2023/05/23 07:56:14;;;;;;;3.25;2.95;;;;;;;;;;5051805;28;20035;-63
2023/05/23 07:58:39;;;;;;;3.20;2.60;;;;;;;;;;5051546;28;20025;-62
2023/05/23 08:01:05;;;;;;;3.25;2.97;;;;;;;;;;5051353;28;20108;-64
2023/05/23 08:03:30;;;;;;;3.90;2.70;;;;;;;;;;5051545;28;20033;-66
2023/05/23 08:05:56;;;;;;;3.30;3.00;;;;;;;;;;5051284;28;20461;-63
2023/05/23 08:08:21;;;;;;;2.83;2.60;;;;;;;;;;5051287;28;20028;-65
2023/05/23 08:10:47;;;;;;;4.53;2.92;;;;;;;;;;5051546;28;20043;-64
2023/05/23 08:13:13;;;;;;;2.95;2.75;;;;;;;;;;5051301;28;20091;-64
2023/05/23 08:15:38;;;;;;;3.10;2.60;;;;;;;;;;5050755;28;20124;-64
2023/05/23 08:18:04;;;;;;;2.92;2.70;;;;;;;;;;5051239;28;20037;-64
2023/05/23 08:20:30;;;;;;;2.90;2.70;;;;;;;;;;5051090;28;20029;-64
2023/05/23 08:23:02;;;;;;;3.00;2.70;;;;;;;;;;5051014;28;20096;-64
2023/05/23 08:25:32;;;;;;;2.95;2.63;;;;;;;;;;5051029;28;20051;-65
2023/05/23 08:27:58;;;;;;;2.42;2.22;;;;;;;;;;5051178;28;20067;-65
2023/05/23 08:30:24;;;;;;;3.13;2.92;;;;;;;;;;5050571;28;20029;-64
2023/05/23 08:32:54;;;;;;;2.72;2.53;;;;;;;;;;5051228;28;20082;-65
2023/05/23 08:35:20;;;;;;;3.00;2.63;;;;;;;;;;5049788;28;20029;-63
2023/05/23 08:37:46;;;;;;;3.08;2.75;;;;;;;;;;5051025;28;20033;-63
2023/05/23 08:40:19;;;;;;;3.30;2.70;;;;;;;;;;5050868;28;20025;-66
2023/05/23 08:42:49;;;;;;;2.95;2.67;;;;;;;;;;5050715;28;20110;-62
2023/05/23 08:45:16;;;;;;;2.80;2.60;;;;;;;;;;5050769;28;20029;-66
2023/05/23 08:47:46;;;;;;;2.72;2.53;;;;;;;;;;5050917;28;20142;-66
2023/05/23 08:50:15;;;;;;;2.83;2.60;;;;;;;;;;5050817;28;20036;-63
2023/05/23 08:53:03;;;;;;;3.00;2.80;;;;;;;;;;5050426;28;20029;-65
2023/05/23 08:55:29;;;;;;;2.90;2.67;;;;;;;;;;5050343;28;20041;-63
2023/05/23 08:57:58;;;;;;;3.20;2.90;;;;;;;;;;5050594;28;20033;-65
2023/05/23 09:00:26;;;;;;;3.10;2.80;;;;;;;;;;5050596;28;20021;-65
2023/05/23 09:02:52;;;;;;;2.60;2.40;;;;;;;;;;5050448;28;20481;-65
2023/05/23 09:05:18;;;;;;;3.17;2.83;;;;;;;;;;5050541;28;20033;-63
2023/05/23 09:07:46;;;;;;;3.20;2.90;;;;;;;;;;5050609;28;20029;-66
2023/05/23 09:10:13;;;;;;;3.22;2.65;;;;;;;;;;5050537;28;20637;-66
2023/05/23 09:12:39;;;;;;;3.00;2.80;;;;;;;;;;5050523;28;20033;-66
2023/05/23 09:15:08;;;;;;;3.00;2.80;;;;;;;;;;5050741;28;20536;-64
2023/05/23 09:17:38;;;;;;;3.20;2.70;;;;;;;;;;5050271;28;20496;-64
2023/05/23 09:20:15;;;;;;;2.92;2.65;;;;;;;;;;5050379;28;20509;-63
2023/05/23 09:22:47;;;;;;;3.78;2.95;;;;;;;;;;5050445;28;20477;-64
2023/05/23 09:25:13;;;;;;;4.25;2.80;;;;;;;;;;5050360;28;20029;-63
2023/05/23 09:27:39;;;;;;;2.95;2.67;;;;;;;;;;5050423;28;20033;-63
2023/05/23 09:30:09;;;;;;;3.40;3.00;;;;;;;;;;5050543;28;20795;-64
2023/05/23 09:32:35;;;;;;;3.53;2.70;;;;;;;;;;5048891;28;20072;-64
2023/05/23 09:37:39;;;;;;;3.78;3.40;;;;;;;;;;5235166;23;20116;-64
2023/05/23 09:40:17;;;;;;;3.30;3.00;;;;;;;;;;4991053;28;20030;-64
2023/05/23 09:42:44;;;;;;;3.85;3.28;;;;;;;;;;4994698;28;20045;-63
2023/05/23 09:45:15;;;;;;;5.25;3.25;;;;;;;;;;4994597;28;20030;-64
2023/05/23 09:47:51;;;;;;;4.05;3.60;;;;;;;;;;4994520;28;20093;-63
2023/05/23 09:50:17;;;;;;;5.38;3.58;;;;;;;;;;4994595;28;20117;-64
2023/05/23 09:52:42;;;;;;;5.93;3.72;;;;;;;;;;4994488;28;20109;-64
2023/05/23 09:55:08;;;;;;;6.07;3.72;;;;;;;;;;4994392;28;20061;-63
2023/05/23 09:57:36;;;;;;;11.50;4.10;;;;;;;;;;4993044;28;20054;-63
2023/05/23 10:00:05;;;;;;;6.07;3.90;;;;;;;;;;4994376;28;20482;-64
2023/05/23 10:02:55;;;;;;;26.73;5.07;;;;;;;;;;4994283;28;20026;-64
2023/05/23 10:05:37;;;;;;;6.18;4.10;;;;;;;;;;4994423;28;20042;-65
2023/05/23 10:08:13;;;;;;;7.65;4.20;;;;;;;;;;4994491;28;20081;-64
2023/05/23 10:10:56;;;;;;;8.70;4.13;;;;;;;;;;4994458;28;20041;-65
2023/05/23 10:13:27;;;;;;;8.43;4.20;;;;;;;;;;4994035;28;20072;-64
2023/05/23 10:16:22;;;;;;;8.15;4.22;;;;;;;;;;4994029;28;20545;-64
2023/05/23 10:18:55;;;;;;;7.25;4.22;;;;;;;;;;4992988;28;20509;-63
2023/05/23 10:21:30;;;;;;;7.28;4.18;;;;;;;;;;4994070;28;20034;-64
2023/05/23 10:23:59;;;;;;;8.15;4.43;;;;;;;;;;4993874;28;20037;-63
2023/05/23 10:26:26;;;;;;;7.22;4.50;;;;;;;;;;4993832;28;20034;-64
2023/05/23 10:28:53;;;;;;;7.63;4.25;;;;;;;;;;4993785;28;20126;-64
2023/05/23 10:31:20;;;;;;;7.47;4.20;;;;;;;;;;4993703;28;20030;-64
2023/05/23 10:33:54;;;;;;;7.80;4.57;;;;;;;;;;4993975;28;20039;-64
2023/05/23 10:36:33;;;;;;;8.25;4.57;;;;;;;;;;4993504;28;20810;-64
2023/05/23 10:39:08;;;;;;;6.93;4.10;;;;;;;;;;4992640;28;20101;-64
2023/05/23 10:41:42;;;;;;;7.25;4.22;;;;;;;;;;4993662;28;20056;-64
2023/05/23 10:44:25;;;;;;;9.30;4.00;;;;;;;;;;4993946;28;20502;-64
2023/05/23 10:46:56;;;;;;;6.43;4.10;;;;;;;;;;4993588;28;20084;-63
2023/05/23 10:49:40;;;;;;;5.88;4.00;;;;;;;;;;4991978;28;20034;-64
2023/05/23 10:52:06;;;;;;;8.07;4.20;;;;;;;;;;4992864;28;20092;-64
2023/05/23 10:54:52;;;;;;;7.20;4.15;;;;;;;;;;4993650;28;20046;-64
2023/05/23 10:57:20;;;;;;;6.30;4.30;;;;;;;;;;4993380;28;20474;-64
2023/05/23 10:59:46;;;;;;;7.72;4.15;;;;;;;;;;4993605;28;20037;-64
2023/05/23 11:02:17;;;;;;;6.28;4.05;;;;;;;;;;4994453;28;20030;-64
2023/05/23 11:04:43;;;;;;;5.80;3.92;;;;;;;;;;4993235;28;20445;-64
2023/05/23 11:07:31;;;;;;;7.55;4.30;;;;;;;;;;4991742;28;20040;-64
2023/05/23 11:10:07;;;;;;;12.60;4.45;;;;;;;;;;4992418;28;20490;-64
2023/05/23 11:12:38;;;;;;;5.82;3.85;;;;;;;;;;4991628;28;20084;-64
2023/05/23 11:15:16;;;;;;;10.95;4.13;;;;;;;;;;4991212;28;20030;-63
2023/05/23 11:18:05;;;;;;;6.45;3.75;;;;;;;;;;4995278;28;20034;-64
2023/05/23 11:20:31;;;;;;;6.10;3.90;;;;;;;;;;4985823;28;20034;-65
2023/05/23 11:23:01;;;;;;;13.75;4.63;;;;;;;;;;4992317;28;20030;-64
2023/05/23 11:25:43;;;;;;;12.77;4.97;;;;;;;;;;4992817;28;20026;-64
2023/05/23 11:28:10;;;;;;;6.13;4.05;;;;;;;;;;4994539;28;20133;-65
2023/05/23 11:30:37;;;;;;;8.00;4.10;;;;;;;;;;4992785;28;20042;-64
2023/05/23 11:33:13;;;;;;;11.10;4.60;;;;;;;;;;4992783;28;20045;-64
2023/05/23 11:35:43;;;;;;;11.73;4.93;;;;;;;;;;4992753;28;20493;-64
2023/05/23 11:38:09;;;;;;;13.88;5.18;;;;;;;;;;4992928;28;20049;-64
2023/05/23 11:40:36;;;;;;;8.48;4.32;;;;;;;;;;4992611;28;20026;-64
2023/05/23 11:43:07;;;;;;;7.65;4.30;;;;;;;;;;4996474;28;20041;-64
2023/05/23 11:45:34;;;;;;;8.38;4.30;;;;;;;;;;5009518;28;20018;-64
2023/05/23 11:48:10;;;;;;;12.75;4.82;;;;;;;;;;5012283;28;20048;-63
2023/05/23 11:50:51;;;;;;;9.35;4.15;;;;;;;;;;4995108;28;20165;-64
2023/05/23 11:53:19;;;;;;;10.48;4.50;;;;;;;;;;4992353;28;20033;-64
2023/05/23 11:55:51;;;;;;;8.57;4.53;;;;;;;;;;4990920;28;20038;-64
2023/05/23 11:58:18;;;;;;;7.70;3.97;;;;;;;;;;4992340;28;20474;-64
2023/05/23 12:00:44;;;;;;;9.65;4.43;;;;;;;;;;4992142;28;20493;-64
2023/05/23 12:03:10;;;;;;;10.85;3.72;;;;;;;;;;4992140;28;20031;-64
2023/05/23 12:05:36;;;;;;;8.25;4.10;;;;;;;;;;4991287;28;20027;-64
2023/05/23 12:08:02;;;;;;;10.23;4.35;;;;;;;;;;4992018;28;20118;-64
2023/05/23 12:10:28;;;;;;;7.25;3.78;;;;;;;;;;4992266;28;20022;-64
2023/05/23 12:12:54;;;;;;;6.47;3.95;;;;;;;;;;4991933;28;20552;-64
2023/05/23 12:15:25;;;;;;;7.03;3.47;;;;;;;;;;4991755;28;20022;-64
2023/05/23 12:17:52;;;;;;;7.88;3.72;;;;;;;;;;4997264;28;20053;-64
2023/05/23 12:20:19;;;;;;;18.38;4.20;;;;;;;;;;5011527;28;20045;-64
2023/05/23 12:22:44;;;;;;;10.90;4.10;;;;;;;;;;5010463;28;20026;-64
2023/05/23 12:25:10;;;;;;;8.23;3.95;;;;;;;;;;5009955;28;20076;-64
2023/05/23 12:27:36;;;;;;;5.28;3.65;;;;;;;;;;5011601;28;20481;-64
2023/05/23 12:30:15;;;;;;;5.40;3.67;;;;;;;;;;5011505;28;20037;-64
2023/05/23 12:32:43;;;;;;;9.32;3.55;;;;;;;;;;5011762;28;20038;-64
2023/05/23 12:35:13;;;;;;;10.95;3.83;;;;;;;;;;5011189;28;20026;-65
2023/05/23 12:37:40;;;;;;;12.77;3.95;;;;;;;;;;5011179;28;20050;-65
2023/05/23 12:40:18;;;;;;;10.20;3.88;;;;;;;;;;5011070;28;20033;-64
2023/05/23 12:42:52;;;;;;;18.52;4.68;;;;;;;;;;5011497;28;20018;-65
2023/05/23 12:45:32;;;;;;;15.80;4.72;;;;;;;;;;5011333;28;20021;-64
2023/05/23 12:47:58;;;;;;;16.50;5.00;;;;;;;;;;5011063;28;20100;-65
2023/05/23 12:50:24;;;;;;;21.20;4.68;;;;;;;;;;5011039;28;20061;-65
2023/05/23 12:52:51;;;;;;;24.67;4.40;;;;;;;;;;5011121;28;20037;-66
2023/05/23 12:55:17;;;;;;;13.93;4.65;;;;;;;;;;5011031;28;20024;-64
2023/05/23 12:57:43;;;;;;;15.93;4.22;;;;;;;;;;5011402;28;20109;-64
2023/05/23 13:00:09;;;;;;;15.52;4.63;;;;;;;;;;5010941;28;20041;-66
2023/05/23 13:02:35;;;;;;;16.65;4.60;;;;;;;;;;5011016;28;20026;-65
2023/05/23 13:05:00;;;;;;;10.10;4.25;;;;;;;;;;5011298;28;20030;-65
2023/05/23 13:07:26;;;;;;;17.35;4.60;;;;;;;;;;5011182;28;20492;-65
2023/05/23 13:09:51;;;;;;;16.65;4.50;;;;;;;;;;5006600;28;20045;-65
2023/05/23 13:12:17;;;;;;;20.85;4.80;;;;;;;;;;4991274;28;20026;-65
2023/05/23 13:14:43;;;;;;;15.65;4.57;;;;;;;;;;4991195;28;20113;-64
2023/05/23 13:17:08;;;;;;;14.68;4.63;;;;;;;;;;4994840;28;20025;-65
2023/05/23 13:19:34;;;;;;;12.15;4.47;;;;;;;;;;4995108;28;20031;-64
2023/05/23 13:22:00;;;;;;;14.57;4.47;;;;;;;;;;4995346;28;20037;-64
2023/05/23 13:24:26;;;;;;;13.48;4.57;;;;;;;;;;4995427;28;20417;-65
2023/05/23 13:26:52;;;;;;;15.57;4.55;;;;;;;;;;4995125;28;20559;-64
2023/05/23 13:29:17;;;;;;;15.35;4.88;;;;;;;;;;4994871;28;20456;-65
2023/05/23 13:31:43;;;;;;;10.23;4.13;;;;;;;;;;4995099;28;20065;-67
2023/05/23 13:34:08;;;;;;;9.73;4.22;;;;;;;;;;4993462;28;20018;-65
2023/05/23 13:36:34;;;;;;;15.65;4.43;;;;;;;;;;5002030;28;20718;-66
2023/05/23 13:39:00;;;;;;;8.95;3.90;;;;;;;;;;5001837;28;20025;-64
2023/05/23 13:41:26;;;;;;;11.30;3.75;;;;;;;;;;5014712;28;20481;-65
2023/05/23 13:43:52;;;;;;;12.63;4.43;;;;;;;;;;5014513;28;20033;-65
2023/05/23 13:46:17;;;;;;;9.18;4.50;;;;;;;;;;5014204;28;20105;-69
2023/05/23 13:48:43;;;;;;;12.50;4.00;;;;;;;;;;5014476;28;20026;-64
2023/05/23 13:51:09;;;;;;;15.77;4.20;;;;;;;;;;4995869;28;20517;-67
2023/05/23 13:53:34;;;;;;;15.25;3.85;;;;;;;;;;4993287;28;20125;-66
2023/05/23 13:56:00;;;;;;;11.90;4.25;;;;;;;;;;4994642;28;20157;-65
2023/05/23 13:58:26;;;;;;;9.48;4.28;;;;;;;;;;4994669;28;20029;-66
2023/05/23 14:00:52;;;;;;;18.23;5.05;;;;;;;;;;4994770;28;20035;-66
2023/05/23 14:03:18;;;;;;;15.10;4.32;;;;;;;;;;4995500;28;20482;-65
2023/05/23 14:05:44;;;;;;;9.15;4.50;;;;;;;;;;4975594;28;20065;-62
2023/05/23 14:08:12;;;;;;;15.90;4.75;;;;;;;;;;4994451;28;20694;-64
2023/05/23 14:10:39;;;;;;;11.80;4.25;;;;;;;;;;4993354;28;20156;-65
2023/05/23 14:13:06;;;;;;;13.93;4.20;;;;;;;;;;4993943;28;20478;-62
2023/05/23 14:15:32;;;;;;;14.00;4.47;;;;;;;;;;4994316;28;20031;-65
2023/05/23 14:17:58;;;;;;;11.02;4.05;;;;;;;;;;4992527;28;20099;-65
2023/05/23 14:20:23;;;;;;;10.77;4.15;;;;;;;;;;5013220;28;20113;-65
2023/05/23 14:22:50;;;;;;;10.75;4.43;;;;;;;;;;5010052;28;20039;-63
2023/05/23 14:25:16;;;;;;;9.07;4.22;;;;;;;;;;4993960;28;20035;-65
2023/05/23 14:27:42;;;;;;;9.32;4.03;;;;;;;;;;4992700;28;20041;-65
2023/05/23 14:30:08;;;;;;;12.43;4.25;;;;;;;;;;4993841;28;20050;-65
2023/05/23 14:32:37;;;;;;;8.98;3.92;;;;;;;;;;4993750;28;20040;-66
2023/05/23 14:35:08;;;;;;;16.53;4.73;;;;;;;;;;4994191;28;20481;-62
2023/05/23 14:37:33;;;;;;;14.05;4.50;;;;;;;;;;4993560;28;20320;-62
2023/05/23 14:39:59;;;;;;;12.57;4.05;;;;;;;;;;4993741;28;20113;-61
2023/05/23 14:42:25;;;;;;;14.48;4.82;;;;;;;;;;4993475;28;20038;-59
2023/05/23 14:44:52;;;;;;;11.10;4.07;;;;;;;;;;4993602;28;20026;-58
2023/05/23 14:47:17;;;;;;;10.35;4.55;;;;;;;;;;4993683;28;20031;-60